Terminal Aerodrome Forecast
Issued by NWS Cleveland, OH

Home | Current Version | Previous Version | Graphics & Text | Print | Product List | Glossary Off
Versions: 1 2 3 4 5 6 7 8 9 10 11 12 13 14 15 16 17 18 19 20 21 22 23 24

641
FTUS41 KCLE 222334
TAFCLE
TAF
KCLE 222334Z 2300/2406 24004KT P6SM BKN035
      TEMPO 2304/2306 SCT040
     FM230600 21006KT P6SM SCT040 BKN200
     FM231800 22010KT P6SM BKN050 OVC100
     FM240000 23008KT P6SM SCT100=

USA.gov is the U.S. government's official web portal to all federal, state and local government web resources and services.